Selected Arizona METAR Reports


Metar stations are listed by distance from this station - near to far. The 'official' reporting station for the Greater Phoenix area is KPHX - Phoenix/Sky Harbor.

KDVT - Phoenix/Deer Valley, Arizona, USA
Distance from station: NW 4mi, 7km
Updated: Fri 09 Dec 2022 1753 MST
Clear
Clear
 Wind from W
Wind: W 5 mph , 7 km/h
Temperature: 57°F , 14°C
Dew Point: 34°F , 1°C
Humidity: 41%
Barometer: 30.04 inHg , 1017.3 hPa
Clouds: Clear
Visibility: 10 miles , 16 km
2022/12/10 00:53 KDVT 100053Z 27004KT 10SM CLR 14/01 A3004 RMK AO2 SLP165 T01390006
KSDL - Scottsdale, Arizona, USA
Distance from station: ESE 6mi, 9km
Updated: Fri 09 Dec 2022 1753 MST
Clear
Clear
 Wind from W
Wind: W 3 mph , 6 km/h
Temperature: 59°F , 15°C
Dew Point: 32°F , 0°C
Humidity: 36%
Barometer: 30.04 inHg , 1017.3 hPa
Clouds: Clear
Visibility: 10 miles , 16 km
2022/12/10 00:53 KSDL 100053Z 27003KT 10SM CLR 15/00 A3004 RMK AO2 SLP166 T01500000
 
KPHX - Phoenix/Sky Harbor, Arizona, USA
Distance from station: S 15mi, 24km
Updated: Fri 09 Dec 2022 1751 MST
Clear
Clear
 Wind from WSW
Wind: WSW 6 mph , 9 km/h
Temperature: 61°F , 16°C
Dew Point: 34°F , 1°C
Humidity: 36%
Barometer: 30.02 inHg , 1016.6 hPa
Clouds: Clear
Visibility: 10 miles , 16 km
2022/12/10 00:51 KPHX 100051Z 25005KT 10SM CLR 16/01 A3002 RMK AO2 SLP160 T01560011
KGEU - Glendale, Arizona, USA
Distance from station: WSW 19mi, 30km
Updated: Fri 09 Dec 2022 1750 MST
Clear
Clear
 Wind from calm
Wind: Calm
Temperature: 57°F , 14°C
Dew Point: 32°F , 0°C
Humidity: 39%
Barometer: 30.03 inHg , 1016.9 hPa
Clouds: Clear
Visibility: 10 miles , 16 km
2022/12/10 00:50 KGEU 100050Z 00000KT 10SM SKC 14/00 A3003
 
KFFZ - Mesa/Falcon Field, Arizona, USA
Distance from station: SE 21mi, 33km
Updated: Fri 09 Dec 2022 1754 MST
Clear
Clear
 Wind from W
Wind: W 5 mph , 7 km/h
Temperature: 59°F , 15°C
Dew Point: 34°F , 1°C
Humidity: 39%
Barometer: 30.03 inHg , 1016.9 hPa
Clouds: Clear
Visibility: 10 miles , 16 km
2022/12/10 00:54 KFFZ 100054Z AUTO 26004KT 10SM CLR 15/01 A3003 RMK AO2 SLP159 T01500011
KLUF - Luke AFB/Glendale, Arizona, USA
Distance from station: WSW 23mi, 36km
Updated: Fri 09 Dec 2022 1755 MST
Clear
Clear
 Wind from SSW
Wind: SSW 5 mph , 7 km/h
Temperature: 57°F , 14°C
Dew Point: 28°F , -2°C
Humidity: 33%
Barometer: 30.02 inHg , 1016.6 hPa
Clouds: Clear
Visibility: 10 miles , 16 km
2022/12/10 00:55 KLUF 100055Z AUTO 20004KT 10SM CLR 14/M02 A3002 RMK AO2 SLP166 T01431022 $
 
KGYR - Goodyear Municipal, Arizona, USA
Distance from station: SW 26mi, 42km
Updated: Fri 09 Dec 2022 1747 MST
Clear
Clear
 Wind from SW
Wind: SW 3 mph , 6 km/h
Temperature: 59°F , 15°C
Dew Point: 30°F , -1°C
Humidity: 34%
Barometer: 30.04 inHg , 1017.3 hPa
Clouds: Clear
Visibility: 10 miles , 16 km
2022/12/10 00:47 KGYR 100047Z 23003KT 10SM SKC 15/M01 A3004
KIWA - Chandler/Mesa, Arizona, USA
Distance from station: SE 32mi, 51km
Updated: Fri 09 Dec 2022 1747 MST
Clear
Clear
 Wind from varies
Wind: varies 3 mph , 6 km/h
Temperature: 57°F , 14°C
Dew Point: 36°F , 2°C
Humidity: 44%
Barometer: 30.05 inHg , 1017.6 hPa
Clouds: Clear
Visibility: 10 miles , 16 km
2022/12/10 00:47 KIWA 100047Z VRB03KT 10SM CLR 14/02 A3005
 
KBXK - Buckeye, Arizona, USA
Distance from station: WSW 42mi, 68km
Updated: Fri 09 Dec 2022 1755 MST
Clear
Clear
 Wind from calm
Wind: Calm
Temperature: 55°F , 13°C
Dew Point: 37°F , 3°C
Humidity: 51%
Barometer: 30.05 inHg , 1017.6 hPa
Clouds: Clear
Visibility: 10 miles , 16 km
2022/12/10 00:55 KBXK 100055Z AUTO 00000KT 10SM CLR 13/03 A3005 RMK A01
KCGZ - Casa Grande, Arizona, USA
Distance from station: SSE 50mi, 81km
Updated: Fri 09 Dec 2022 1756 MST
Clear
Clear
 Wind from NW
Wind: NW 6 mph , 9 km/h
Temperature: 55°F , 13°C
Dew Point: 39°F , 4°C
Humidity: 55%
Barometer: 30.05 inHg , 1017.6 hPa
Clouds: Clear
Visibility: 10 miles , 16 km
2022/12/10 00:56 KCGZ 100056Z AUTO 31005KT 10SM CLR 13/04 A3005 RMK AO2 SLP176 T01330039 $
 
KPAN - Payson, Arizona, USA
Distance from station: NE 57mi, 91km
Updated: Fri 09 Dec 2022 1755 MST
Clear
Clear
 Wind from W
Wind: W 5 mph , 7 km/h
Temperature: 45°F , 7°C
Wind Chill: 42°F , 6°C
Dew Point: 27°F , -3°C
Humidity: 49%
Barometer: 30.10 inHg , 1019.3 hPa
Clouds: Clear
Visibility: 10 miles , 16 km
2022/12/10 00:55 KPAN 100055Z AUTO 26004KT 10SM CLR 07/M03 A3010 RMK AO2 PWINO TSNO
KGBN - Gila Bend (aaf), Arizona, USA
Distance from station: SW 68mi, 109km
Updated: Wed 04 Dec 2019 0855 MST
NOT Current
Mostly cloudy
Mostly cloudy
 Wind from calm
Wind: Calm
Temperature: 55°F , 13°C
Dew Point: 54°F , 12°C
Humidity: 94%
Barometer: 30.02 inHg , 1016.6 hPa
Clouds: Mostly cloudy
Visibility: 10 miles , 16 km
Cloud details: Mostly cloudy 10000 ft
Mostly cloudy 14000 ft
2019/12/04 15:55 KGBN 041555Z 00000KT 10SM BKN100 BKN140 13/12 A3002 RMK AO2A SLP162
 
KPRC - Prescott, Arizona, USA
Distance from station: NNW 73mi, 118km
Updated: Fri 09 Dec 2022 1753 MST
Clear
Clear
 Wind from varies
Wind: varies 3 mph , 6 km/h
Temperature: 46°F , 8°C
Dew Point: 16°F , -9°C
Humidity: 29%
Barometer: 30.08 inHg , 1018.6 hPa
Clouds: Clear
Visibility: 10 miles , 16 km
2022/12/10 00:53 KPRC 100053Z VRB03KT 10SM CLR 08/M09 A3008 RMK AO2 SLP178 T00831094
KSEZ - Sedona, Arizona, USA
Distance from station: N 84mi, 135km
Updated: Fri 09 Dec 2022 1755 MST

 Wind from calm
Wind: Calm
Temperature: 50°F , 10°C
Dew Point: 18°F , -8°C
Humidity: 28%
Barometer: 30.09 inHg , 1019 hPa
Visibility: 10 miles , 16 km
2022/12/10 00:55 KSEZ 100055Z AUTO 00000KT 10SM 10/M08 A3009 RMK AO2
 
KFLG - Flagstaff, Arizona, USA
Distance from station: N 105mi, 168km
Updated: Fri 09 Dec 2022 1757 MST
Clear
Clear
 Wind from NE
Wind: NE 3 mph , 6 km/h
Temperature: 30°F , -1°C
Dew Point: 16°F , -9°C
Humidity: 55%
Barometer: 30.11 inHg , 1019.6 hPa
Clouds: Clear
Visibility: 10 miles , 16 km
2022/12/10 00:57 KFLG 100057Z AUTO 04003KT 10SM CLR M01/M09 A3011 RMK AO2 SLP210 T10061089
KRYN - Tucson/Ryan Field, Arizona, USA
Distance from station: SSE 114mi, 184km
Updated: Fri 09 Dec 2022 1755 MST
Clear
Clear
 Wind from WNW
Wind: WNW 6 mph , 9 km/h
Temperature: 52°F , 11°C
Dew Point: 36°F , 2°C
Humidity: 54%
Barometer: 30.03 inHg , 1016.9 hPa
Clouds: Clear
Visibility: 10 miles , 16 km
2022/12/10 00:55 KRYN 100055Z AUTO 29005KT 10SM CLR 11/02 A3003 RMK AO2
 
KCMR - Williams Clark, Arizona, USA
Distance from station: N 115mi, 185km
Updated: Fri 09 Dec 2022 1755 MST
Clear
Clear
 Wind from S
Wind: S 3 mph , 6 km/h
Temperature: 32°F , 0°C
Dew Point: 12°F , -11°C
Humidity: 44%
Barometer: 30.11 inHg , 1019.6 hPa
Clouds: Clear
Visibility: 10 miles , 16 km
2022/12/10 00:55 KCMR 100055Z AUTO 17003KT 10SM CLR 00/M11 A3011 RMK AO2
KINW - Winslow, Arizona, USA
Distance from station: NE 121mi, 194km
Updated: Fri 09 Dec 2022 1756 MST
Clear
Clear
 Wind from NW
Wind: NW 7 mph , 11 km/h
Temperature: 43°F , 6°C
Wind Chill: 39°F , 4°C
Dew Point: 12°F , -11°C
Humidity: 29%
Barometer: 30.09 inHg , 1019 hPa
Clouds: Clear
2022/12/10 00:56 KINW 100056Z AUTO 31006KT CLR 06/M11 A3009 RMK AO2 SLP203 T00561106 TSNO $
 
KTUS - Tucson, Arizona, USA
Distance from station: SSE 121mi, 195km
Updated: Fri 09 Dec 2022 1753 MST
Clear
Clear
 Wind from N
Wind: N 5 mph , 7 km/h
Temperature: 57°F , 14°C
Dew Point: 37°F , 3°C
Humidity: 48%
Barometer: 30.05 inHg , 1017.6 hPa
Clouds: Clear
Visibility: 10 miles , 16 km
2022/12/10 00:53 KTUS 100053Z 36004KT 10SM CLR 14/03 A3005 RMK AO2 SLP160 T01390028
KDMA - Davis AFB/Tucson, Arizona, USA
Distance from station: SE 122mi, 196km
Updated: Fri 09 Dec 2022 1755 MST
Clear
Clear
 Wind from calm
Wind: Calm
Temperature: 54°F , 12°C
Dew Point: 39°F , 4°C
Humidity: 58%
Barometer: 30.03 inHg , 1016.9 hPa
Clouds: Clear
Visibility: 10 miles , 16 km
2022/12/10 00:55 KDMA 100055Z AUTO 00000KT 10SM CLR 12/04 A3003 RMK AO2 SLP202 T01200035 $
 
KSOW - Show Low Municipal, Arizona, USA
Distance from station: ENE 123mi, 198km
Updated: Fri 09 Dec 2022 1755 MST
Clear
Clear
 Wind from SSW
Wind: SSW 5 mph , 7 km/h
Temperature: 39°F , 4°C
Wind Chill: 35°F , 2°C
Dew Point: 25°F , -4°C
Humidity: 56%
Barometer: 30.11 inHg , 1019.6 hPa
Clouds: Clear
Visibility: 10 miles , 16 km
2022/12/10 00:55 KSOW 100055Z AUTO 21004KT 10SM CLR 04/M04 A3011 RMK AO2
KSAD - Safford, Arizona, USA
Distance from station: ESE 148mi, 238km
Updated: Fri 09 Dec 2022 1751 MST
Clear
Clear
 Wind from NW
Wind: NW 5 mph , 7 km/h
Temperature: 54°F , 12°C
Dew Point: 41°F , 5°C
Humidity: 63%
Barometer: 30.01 inHg , 1016.3 hPa
Clouds: Clear
Visibility: 10 miles , 16 km
2022/12/10 00:51 KSAD 100051Z AUTO 31004KT 10SM CLR 12/05 A3001 RMK AO2 SLP151 T01170050